sensor_id;sensor_type;location;lat;lon;timestamp;pressure;altitude;pressure_sealevel;temperature;humidity
13478;BME280;12598;62.382;17.344;2023-07-02T00:00:00;99462.38;;;27.39;31.55
13478;BME280;12598;62.382;17.344;2023-07-02T00:01:09;99473.81;;;27.41;31.63
13478;BME280;12598;62.382;17.344;2023-07-02T00:02:11;99466.94;;;27.38;31.48
13478;BME280;12598;62.382;17.344;2023-07-02T00:03:13;99468.28;;;27.36;31.65
13478;BME280;12598;62.382;17.344;2023-07-02T00:04:15;99472.06;;;27.35;31.65
13478;BME280;12598;62.382;17.344;2023-07-02T00:05:18;99473.13;;;27.34;31.71
13478;BME280;12598;62.382;17.344;2023-07-02T00:06:20;99467.09;;;27.32;31.72
13478;BME280;12598;62.382;17.344;2023-07-02T00:07:22;99470.03;;;27.30;31.49
13478;BME280;12598;62.382;17.344;2023-07-02T00:08:24;99470.88;;;27.31;31.61
13478;BME280;12598;62.382;17.344;2023-07-02T00:09:26;99467.56;;;27.29;31.52
13478;BME280;12598;62.382;17.344;2023-07-02T00:10:28;99475.13;;;27.27;31.69
13478;BME280;12598;62.382;17.344;2023-07-02T00:11:30;99463.31;;;27.22;31.78
13478;BME280;12598;62.382;17.344;2023-07-02T00:12:32;99462.63;;;27.26;31.63
13478;BME280;12598;62.382;17.344;2023-07-02T00:13:34;99469.13;;;27.25;31.67
13478;BME280;12598;62.382;17.344;2023-07-02T00:14:36;99464.75;;;27.24;31.59
13478;BME280;12598;62.382;17.344;2023-07-02T00:15:38;99465.81;;;27.23;31.58
13478;BME280;12598;62.382;17.344;2023-07-02T00:16:44;99461.44;;;27.22;31.79
13478;BME280;12598;62.382;17.344;2023-07-02T00:17:47;99460.38;;;27.23;31.73
13478;BME280;12598;62.382;17.344;2023-07-02T00:18:50;99466.03;;;27.22;31.71
13478;BME280;12598;62.382;17.344;2023-07-02T00:19:54;99459.19;;;27.19;31.85
13478;BME280;12598;62.382;17.344;2023-07-02T00:20:56;99456.94;;;27.16;31.91
13478;BME280;12598;62.382;17.344;2023-07-02T00:21:58;99460.25;;;27.18;31.57
13478;BME280;12598;62.382;17.344;2023-07-02T00:23:00;99458.59;;;27.17;31.65
13478;BME280;12598;62.382;17.344;2023-07-02T00:24:03;99451.41;;;27.11;31.85
13478;BME280;12598;62.382;17.344;2023-07-02T00:25:05;99456.13;;;27.16;31.88
13478;BME280;12598;62.382;17.344;2023-07-02T00:26:07;99466.16;;;27.15;31.64
13478;BME280;12598;62.382;17.344;2023-07-02T00:27:09;99458.28;;;27.14;31.82
13478;BME280;12598;62.382;17.344;2023-07-02T00:28:11;99451.28;;;27.06;31.77
13478;BME280;12598;62.382;17.344;2023-07-02T00:29:13;99447.88;;;27.11;31.63
13478;BME280;12598;62.382;17.344;2023-07-02T00:30:15;99457.09;;;27.10;31.57
13478;BME280;12598;62.382;17.344;2023-07-02T00:31:17;99451.28;;;27.06;31.81
13478;BME280;12598;62.382;17.344;2023-07-02T00:32:19;99451.06;;;27.08;31.52
13478;BME280;12598;62.382;17.344;2023-07-02T00:33:21;99456.38;;;27.03;31.66
13478;BME280;12598;62.382;17.344;2023-07-02T00:34:23;99451.28;;;27.06;32.30
13478;BME280;12598;62.382;17.344;2023-07-02T00:35:25;99446.09;;;27.05;31.76
13478;BME280;12598;62.382;17.344;2023-07-02T00:36:30;99434.66;;;27.03;31.91
13478;BME280;12598;62.382;17.344;2023-07-02T00:37:32;99440.66;;;27.05;31.88
13478;BME280;12598;62.382;17.344;2023-07-02T00:38:34;99432.63;;;26.98;31.82
13478;BME280;12598;62.382;17.344;2023-07-02T00:39:36;99441.16;;;27.02;31.80
13478;BME280;12598;62.382;17.344;2023-07-02T00:40:38;99441.97;;;27.02;32.10
13478;BME280;12598;62.382;17.344;2023-07-02T00:41:40;99440.19;;;26.96;31.76
13478;BME280;12598;62.382;17.344;2023-07-02T00:42:44;99427.69;;;26.95;31.72
13478;BME280;12598;62.382;17.344;2023-07-02T00:43:46;99439.72;;;26.99;32.00
13478;BME280;12598;62.382;17.344;2023-07-02T00:44:48;99438.06;;;26.98;31.91
13478;BME280;12598;62.382;17.344;2023-07-02T00:45:50;99439.94;;;26.98;31.88
13478;BME280;12598;62.382;17.344;2023-07-02T00:46:52;99436.91;;;26.94;31.89
13478;BME280;12598;62.382;17.344;2023-07-02T00:47:54;99428.97;;;26.93;32.16
13478;BME280;12598;62.382;17.344;2023-07-02T00:48:56;99431.47;;;26.94;32.04
13478;BME280;12598;62.382;17.344;2023-07-02T00:49:59;99429.22;;;26.91;31.99
13478;BME280;12598;62.382;17.344;2023-07-02T00:51:01;99428.75;;;26.94;32.08
13478;BME280;12598;62.382;17.344;2023-07-02T00:52:03;99428.38;;;26.91;32.07
13478;BME280;12598;62.382;17.344;2023-07-02T00:53:05;99430.88;;;26.92;32.08
13478;BME280;12598;62.382;17.344;2023-07-02T00:54:08;99427.00;;;26.88;32.07
13478;BME280;12598;62.382;17.344;2023-07-02T00:55:10;99433.81;;;26.91;32.03
13478;BME280;12598;62.382;17.344;2023-07-02T00:56:12;99407.63;;;26.73;32.14
13478;BME280;12598;62.382;17.344;2023-07-02T00:57:14;99428.88;;;26.88;32.14
13478;BME280;12598;62.382;17.344;2023-07-02T00:58:16;99432.41;;;26.88;32.21
13478;BME280;12598;62.382;17.344;2023-07-02T00:59:18;99436.19;;;26.87;32.14
13478;BME280;12598;62.382;17.344;2023-07-02T01:00:20;99433.47;;;26.87;32.25
13478;BME280;12598;62.382;17.344;2023-07-02T01:01:24;99425.44;;;26.81;32.12
13478;BME280;12598;62.382;17.344;2023-07-02T01:02:26;99431.84;;;26.86;32.17
13478;BME280;12598;62.382;17.344;2023-07-02T01:03:32;99431.84;;;26.86;32.22
13478;BME280;12598;62.382;17.344;2023-07-02T01:04:34;99424.16;;;26.83;31.99
13478;BME280;12598;62.382;17.344;2023-07-02T01:05:36;99425.81;;;26.84;32.27
13478;BME280;12598;62.382;17.344;2023-07-02T01:06:38;99429.59;;;26.83;32.65
13478;BME280;12598;62.382;17.344;2023-07-02T01:07:43;99426.28;;;26.81;32.15
13478;BME280;12598;62.382;17.344;2023-07-02T01:08:47;99430.06;;;26.80;32.16
13478;BME280;12598;62.382;17.344;2023-07-02T01:09:49;99428.16;;;26.81;32.25
13478;BME280;12598;62.382;17.344;2023-07-02T01:10:51;99430.06;;;26.80;32.12
13478;BME280;12598;62.382;17.344;2023-07-02T01:11:55;99433.84;;;26.79;32.35
13478;BME280;12598;62.382;17.344;2023-07-02T01:13:08;99431.56;;;26.76;32.32
13478;BME280;12598;62.382;17.344;2023-07-02T01:14:15;99429.22;;;26.80;32.13
13478;BME280;12598;62.382;17.344;2023-07-02T01:15:18;99435.03;;;26.83;32.33
13478;BME280;12598;62.382;17.344;2023-07-02T01:16:21;99425.09;;;26.77;32.09
13478;BME280;12598;62.382;17.344;2023-07-02T01:17:25;99422.25;;;26.72;32.20
13478;BME280;12598;62.382;17.344;2023-07-02T01:18:28;99424.28;;;26.77;32.28
13478;BME280;12598;62.382;17.344;2023-07-02T01:19:45;99424.88;;;26.79;32.25
13478;BME280;12598;62.382;17.344;2023-07-02T01:20:52;99409.88;;;26.76;32.23
13478;BME280;12598;62.382;17.344;2023-07-02T01:21:55;99423.09;;;26.73;32.21
13478;BME280;12598;62.382;17.344;2023-07-02T01:22:58;99420.97;;;26.75;32.29
13478;BME280;12598;62.382;17.344;2023-07-02T01:24:05;99426.16;;;26.76;32.49
13478;BME280;12598;62.382;17.344;2023-07-02T01:25:07;99412.72;;;26.70;32.37
13478;BME280;12598;62.382;17.344;2023-07-02T01:26:11;99423.91;;;26.73;32.38
13478;BME280;12598;62.382;17.344;2023-07-02T01:27:14;99424.97;;;26.72;32.41
13478;BME280;12598;62.382;17.344;2023-07-02T01:28:16;99398.09;;;26.59;32.41
13478;BME280;12598;62.382;17.344;2023-07-02T01:29:20;99418.16;;;26.70;32.95
13478;BME280;12598;62.382;17.344;2023-07-02T01:30:22;99422.72;;;26.69;32.64
13478;BME280;12598;62.382;17.344;2023-07-02T01:31:24;99417.31;;;26.69;32.44
13478;BME280;12598;62.382;17.344;2023-07-02T01:32:27;99422.72;;;26.69;32.61
13478;BME280;12598;62.382;17.344;2023-07-02T01:33:29;99414.47;;;26.64;32.68
13478;BME280;12598;62.382;17.344;2023-07-02T01:34:31;99414.84;;;26.68;32.54
13478;BME280;12598;62.382;17.344;2023-07-02T01:35:33;99420.28;;;26.68;32.57
13478;BME280;12598;62.382;17.344;2023-07-02T01:36:35;99417.78;;;26.66;32.37
13478;BME280;12598;62.382;17.344;2023-07-02T01:37:37;99408.94;;;26.59;32.69
13478;BME280;12598;62.382;17.344;2023-07-02T01:38:40;99411.66;;;26.59;32.64
13478;BME280;12598;62.382;17.344;2023-07-02T01:39:43;99417.19;;;26.64;32.50
13478;BME280;12598;62.382;17.344;2023-07-02T01:40:45;99419.91;;;26.64;32.52
13478;BME280;12598;62.382;17.344;2023-07-02T01:41:52;99418.25;;;26.63;32.77
13478;BME280;12598;62.382;17.344;2023-07-02T01:42:54;99418.03;;;26.65;32.50
13478;BME280;12598;62.382;17.344;2023-07-02T01:43:56;99409.41;;;26.56;32.64
13478;BME280;12598;62.382;17.344;2023-07-02T01:44:58;99414.94;;;26.61;32.63
13478;BME280;12598;62.382;17.344;2023-07-02T01:46:01;99414.94;;;26.61;32.76
13478;BME280;12598;62.382;17.344;2023-07-02T01:47:03;99411.06;;;26.57;32.81
13478;BME280;12598;62.382;17.344;2023-07-02T01:48:05;99407.88;;;26.60;32.62
13478;BME280;12598;62.382;17.344;2023-07-02T01:49:07;99410.47;;;26.55;32.74
13478;BME280;12598;62.382;17.344;2023-07-02T01:50:10;99418.72;;;26.60;32.99
13478;BME280;12598;62.382;17.344;2023-07-02T01:51:12;99410.59;;;26.60;32.83
13478;BME280;12598;62.382;17.344;2023-07-02T01:52:15;99409.78;;;26.60;32.74
13478;BME280;12598;62.382;17.344;2023-07-02T01:53:18;99413.56;;;26.59;32.82
13478;BME280;12598;62.382;17.344;2023-07-02T01:54:21;99402.94;;;26.57;32.89
13478;BME280;12598;62.382;17.344;2023-07-02T01:55:24;99404.56;;;26.58;33.00
13478;BME280;12598;62.382;17.344;2023-07-02T01:56:26;99404.78;;;26.57;33.03
13478;BME280;12598;62.382;17.344;2023-07-02T01:57:28;99410.22;;;26.57;32.74
13478;BME280;12598;62.382;17.344;2023-07-02T01:58:32;99405.63;;;26.57;32.89
13478;BME280;12598;62.382;17.344;2023-07-02T01:59:34;99399.03;;;26.53;32.92
13478;BME280;12598;62.382;17.344;2023-07-02T02:00:36;99399.63;;;26.55;32.85
13478;BME280;12598;62.382;17.344;2023-07-02T02:01:39;99405.06;;;26.55;32.94
13478;BME280;12598;62.382;17.344;2023-07-02T02:02:43;99404.00;;;26.56;32.87
13478;BME280;12598;62.382;17.344;2023-07-02T02:03:45;99399.63;;;26.55;33.13
13478;BME280;12598;62.382;17.344;2023-07-02T02:04:47;99406.09;;;26.54;32.90
13478;BME280;12598;62.382;17.344;2023-07-02T02:05:50;99406.34;;;26.53;32.78
13478;BME280;12598;62.382;17.344;2023-07-02T02:06:53;99392.91;;;26.46;32.93
13478;BME280;12598;62.382;17.344;2023-07-02T02:07:55;99401.38;;;26.50;32.81
13478;BME280;12598;62.382;17.344;2023-07-02T02:08:57;99397.84;;;26.49;32.66
13478;BME280;12598;62.382;17.344;2023-07-02T02:09:59;99405.53;;;26.52;32.76
13478;BME280;12598;62.382;17.344;2023-07-02T02:11:01;99401.16;;;26.51;32.99
13478;BME280;12598;62.382;17.344;2023-07-02T02:12:03;99396.53;;;26.52;32.89
13478;BME280;12598;62.382;17.344;2023-07-02T02:13:05;99401.16;;;26.51;33.16
13478;BME280;12598;62.382;17.344;2023-07-02T02:14:07;99406.59;;;26.51;32.86
13478;BME280;12598;62.382;17.344;2023-07-02T02:15:09;99403.28;;;26.49;33.02
13478;BME280;12598;62.382;17.344;2023-07-02T02:16:12;99397.59;;;26.51;32.82
13478;BME280;12598;62.382;17.344;2023-07-02T02:17:14;99402.22;;;26.50;32.83
13478;BME280;12598;62.382;17.344;2023-07-02T02:18:16;99404.09;;;26.50;32.65
13478;BME280;12598;62.382;17.344;2023-07-02T02:19:18;99392.44;;;26.49;32.84
13478;BME280;12598;62.382;17.344;2023-07-02T02:20:20;99393.50;;;26.48;32.84
13478;BME280;12598;62.382;17.344;2023-07-02T02:21:22;99404.34;;;26.48;32.59
13478;BME280;12598;62.382;17.344;2023-07-02T02:22:24;99398.91;;;26.48;33.19
13478;BME280;12598;62.382;17.344;2023-07-02T02:23:26;99403.50;;;26.48;32.97
13478;BME280;12598;62.382;17.344;2023-07-02T02:24:28;99397.28;;;26.47;32.97
13478;BME280;12598;62.382;17.344;2023-07-02T02:25:30;99386.28;;;26.42;33.12
13478;BME280;12598;62.382;17.344;2023-07-02T02:26:32;99391.84;;;26.47;33.32
13478;BME280;12598;62.382;17.344;2023-07-02T02:27:33;99399.97;;;26.47;33.30
13478;BME280;12598;62.382;17.344;2023-07-02T02:28:36;99395.63;;;26.46;32.95
13478;BME280;12598;62.382;17.344;2023-07-02T02:29:38;99392.03;;;26.46;33.02
13478;BME280;12598;62.382;17.344;2023-07-02T02:30:40;99395.63;;;26.46;32.93
13478;BME280;12598;62.382;17.344;2023-07-02T02:31:43;99392.28;;;26.44;33.07
13478;BME280;12598;62.382;17.344;2023-07-02T02:32:46;99395.63;;;26.46;33.09
13478;BME280;12598;62.382;17.344;2023-07-02T02:33:48;99394.75;;;26.46;33.23
13478;BME280;12598;62.382;17.344;2023-07-02T02:34:51;99391.22;;;26.45;33.02
13478;BME280;12598;62.382;17.344;2023-07-02T02:35:54;99380.50;;;26.39;32.92
13478;BME280;12598;62.382;17.344;2023-07-02T02:36:56;99388.50;;;26.45;33.12
13478;BME280;12598;62.382;17.344;2023-07-02T02:38:02;99386.50;;;26.41;33.06
13478;BME280;12598;62.382;17.344;2023-07-02T02:39:04;99393.94;;;26.45;33.01
13478;BME280;12598;62.382;17.344;2023-07-02T02:40:07;99393.09;;;26.45;33.28
13478;BME280;12598;62.382;17.344;2023-07-02T02:41:12;99393.34;;;26.43;33.23
13478;BME280;12598;62.382;17.344;2023-07-02T02:42:18;99394.75;;;26.46;32.77
13478;BME280;12598;62.382;17.344;2023-07-02T02:43:20;99392.28;;;26.44;33.12
13478;BME280;12598;62.382;17.344;2023-07-02T02:44:25;99380.75;;;26.37;33.10
13478;BME280;12598;62.382;17.344;2023-07-02T02:45:26;99396.06;;;26.43;33.06
13478;BME280;12598;62.382;17.344;2023-07-02T02:46:30;99390.84;;;26.42;33.01
13478;BME280;12598;62.382;17.344;2023-07-02T02:47:32;99388.97;;;26.42;33.14
13478;BME280;12598;62.382;17.344;2023-07-02T02:48:34;99399.00;;;26.42;33.23
13478;BME280;12598;62.382;17.344;2023-07-02T02:49:39;99388.41;;;26.40;32.95
13478;BME280;12598;62.382;17.344;2023-07-02T02:50:41;99392.75;;;26.41;33.57
13478;BME280;12598;62.382;17.344;2023-07-02T02:51:45;99397.59;;;26.39;33.04
13478;BME280;12598;62.382;17.344;2023-07-02T02:52:46;99386.59;;;26.34;33.05
13478;BME280;12598;62.382;17.344;2023-07-02T02:53:48;99387.56;;;26.40;33.16
13478;BME280;12598;62.382;17.344;2023-07-02T02:54:50;99381.53;;;26.38;33.26
13478;BME280;12598;62.382;17.344;2023-07-02T02:55:54;99373.28;;;26.33;33.21
13478;BME280;12598;62.382;17.344;2023-07-02T02:56:57;99401.94;;;26.40;33.26
13478;BME280;12598;62.382;17.344;2023-07-02T02:57:59;99381.19;;;26.34;33.52
13478;BME280;12598;62.382;17.344;2023-07-02T02:59:01;99398.66;;;26.38;33.39
13478;BME280;12598;62.382;17.344;2023-07-02T03:00:03;99394.03;;;26.39;33.34
13478;BME280;12598;62.382;17.344;2023-07-02T03:01:06;99394.03;;;26.39;33.18
13478;BME280;12598;62.382;17.344;2023-07-02T03:02:13;99394.03;;;26.39;33.14
13478;BME280;12598;62.382;17.344;2023-07-02T03:03:15;99392.38;;;26.38;32.94
13478;BME280;12598;62.382;17.344;2023-07-02T03:04:19;99390.50;;;26.38;33.26
13478;BME280;12598;62.382;17.344;2023-07-02T03:05:25;99400.31;;;26.39;33.22
13478;BME280;12598;62.382;17.344;2023-07-02T03:06:28;99397.81;;;26.38;33.18
13478;BME280;12598;62.382;17.344;2023-07-02T03:07:30;99393.22;;;26.38;33.42
13478;BME280;12598;62.382;17.344;2023-07-02T03:08:32;99391.56;;;26.37;33.32
13478;BME280;12598;62.382;17.344;2023-07-02T03:09:34;99396.16;;;26.37;33.48
13478;BME280;12598;62.382;17.344;2023-07-02T03:10:36;99396.16;;;26.37;33.18
13478;BME280;12598;62.382;17.344;2023-07-02T03:11:38;99395.31;;;26.36;33.15
13478;BME280;12598;62.382;17.344;2023-07-02T03:12:40;99391.69;;;26.31;33.20
13478;BME280;12598;62.382;17.344;2023-07-02T03:13:42;99394.13;;;26.32;33.26
13478;BME280;12598;62.382;17.344;2023-07-02T03:14:44;99398.28;;;26.35;33.46
13478;BME280;12598;62.382;17.344;2023-07-02T03:15:46;99381.66;;;26.31;33.44
13478;BME280;12598;62.382;17.344;2023-07-02T03:16:48;99393.66;;;26.35;33.29
13478;BME280;12598;62.382;17.344;2023-07-02T03:17:50;99399.09;;;26.35;33.09
13478;BME280;12598;62.382;17.344;2023-07-02T03:18:52;99397.44;;;26.34;33.53
13478;BME280;12598;62.382;17.344;2023-07-02T03:19:54;99380.84;;;26.31;33.49
13478;BME280;12598;62.382;17.344;2023-07-02T03:20:56;99392.00;;;26.34;33.41
13478;BME280;12598;62.382;17.344;2023-07-02T03:21:57;99384.94;;;26.33;33.25
13478;BME280;12598;62.382;17.344;2023-07-02T03:23:00;99390.38;;;26.33;33.35
13478;BME280;12598;62.382;17.344;2023-07-02T03:24:02;99393.06;;;26.33;33.46
13478;BME280;12598;62.382;17.344;2023-07-02T03:25:04;99395.78;;;26.33;33.26
13478;BME280;12598;62.382;17.344;2023-07-02T03:26:06;99391.69;;;26.31;33.50
13478;BME280;12598;62.382;17.344;2023-07-02T03:27:08;99388.72;;;26.32;33.36
13478;BME280;12598;62.382;17.344;2023-07-02T03:28:10;99394.13;;;26.32;33.57
13478;BME280;12598;62.382;17.344;2023-07-02T03:29:12;99388.72;;;26.32;33.58
13478;BME280;12598;62.382;17.344;2023-07-02T03:30:14;99386.84;;;26.33;33.38
13478;BME280;12598;62.382;17.344;2023-07-02T03:31:15;99384.13;;;26.33;33.54
13478;BME280;12598;62.382;17.344;2023-07-02T03:32:17;99383.19;;;26.27;33.46
13478;BME280;12598;62.382;17.344;2023-07-02T03:33:19;99381.31;;;26.28;33.48
13478;BME280;12598;62.382;17.344;2023-07-02T03:34:21;99386.00;;;26.32;33.50
13478;BME280;12598;62.382;17.344;2023-07-02T03:35:25;99377.53;;;26.29;33.30
13478;BME280;12598;62.382;17.344;2023-07-02T03:36:27;99389.56;;;26.33;33.70
13478;BME280;12598;62.382;17.344;2023-07-02T03:37:29;99377.06;;;26.32;33.69
13478;BME280;12598;62.382;17.344;2023-07-02T03:38:30;99381.53;;;26.26;33.43
13478;BME280;12598;62.382;17.344;2023-07-02T03:39:32;99392.47;;;26.31;33.72
13478;BME280;12598;62.382;17.344;2023-07-02T03:40:34;99388.97;;;26.31;33.52
13478;BME280;12598;62.382;17.344;2023-07-02T03:41:36;99388.13;;;26.30;33.23
13478;BME280;12598;62.382;17.344;2023-07-02T03:42:38;99390.03;;;26.30;33.59
13478;BME280;12598;62.382;17.344;2023-07-02T03:43:40;99388.13;;;26.30;33.82
13478;BME280;12598;62.382;17.344;2023-07-02T03:44:42;99390.03;;;26.30;33.51
13478;BME280;12598;62.382;17.344;2023-07-02T03:45:44;99379.19;;;26.30;33.73
13478;BME280;12598;62.382;17.344;2023-07-02T03:46:46;99376.22;;;26.31;33.52
13478;BME280;12598;62.382;17.344;2023-07-02T03:47:47;99373.75;;;26.30;33.64
13478;BME280;12598;62.382;17.344;2023-07-02T03:48:49;99367.50;;;26.29;33.71
13478;BME280;12598;62.382;17.344;2023-07-02T03:49:51;99370.69;;;26.26;33.59
13478;BME280;12598;62.382;17.344;2023-07-02T03:50:53;99366.69;;;26.29;33.52
13478;BME280;12598;62.382;17.344;2023-07-02T03:51:55;99370.22;;;26.29;33.43
13478;BME280;12598;62.382;17.344;2023-07-02T03:52:57;99365.63;;;26.30;34.10
13478;BME280;12598;62.382;17.344;2023-07-02T03:53:59;99365.84;;;26.28;33.73
13478;BME280;12598;62.382;17.344;2023-07-02T03:55:01;99342.75;;;26.14;33.68
13478;BME280;12598;62.382;17.344;2023-07-02T03:56:03;99360.44;;;26.28;33.71
13478;BME280;12598;62.382;17.344;2023-07-02T03:57:05;99359.63;;;26.28;33.76
13478;BME280;12598;62.382;17.344;2023-07-02T03:58:07;99359.63;;;26.28;33.77
13478;BME280;12598;62.382;17.344;2023-07-02T03:59:09;99361.28;;;26.29;34.10
13478;BME280;12598;62.382;17.344;2023-07-02T04:00:11;99362.34;;;26.28;33.63
13478;BME280;12598;62.382;17.344;2023-07-02T04:01:16;99362.09;;;26.29;33.89
13478;BME280;12598;62.382;17.344;2023-07-02T04:02:18;99355.84;;;26.29;33.48
13478;BME280;12598;62.382;17.344;2023-07-02T04:03:19;99355.00;;;26.28;33.91
13478;BME280;12598;62.382;17.344;2023-07-02T04:04:21;99350.91;;;26.26;33.68
13478;BME280;12598;62.382;17.344;2023-07-02T04:05:24;99359.63;;;26.28;33.70
13478;BME280;12598;62.382;17.344;2023-07-02T04:06:25;99355.00;;;26.28;33.72
13478;BME280;12598;62.382;17.344;2023-07-02T04:07:28;99358.78;;;26.27;33.94
13478;BME280;12598;62.382;17.344;2023-07-02T04:08:29;99350.66;;;26.27;34.10
13478;BME280;12598;62.382;17.344;2023-07-02T04:09:33;99356.78;;;26.23;33.73
13478;BME280;12598;62.382;17.344;2023-07-02T04:10:35;99320.59;;;26.06;34.10
13478;BME280;12598;62.382;17.344;2023-07-02T04:11:37;99351.72;;;26.26;33.94
13478;BME280;12598;62.382;17.344;2023-07-02T04:12:39;99347.81;;;26.22;34.00
13478;BME280;12598;62.382;17.344;2023-07-02T04:13:41;99350.06;;;26.25;33.78
13478;BME280;12598;62.382;17.344;2023-07-02T04:14:43;99354.69;;;26.25;33.91
13478;BME280;12598;62.382;17.344;2023-07-02T04:15:45;99350.91;;;26.26;33.80
13478;BME280;12598;62.382;17.344;2023-07-02T04:16:47;99350.06;;;26.25;33.89
13478;BME280;12598;62.382;17.344;2023-07-02T04:17:49;99355.47;;;26.25;34.00
13478;BME280;12598;62.382;17.344;2023-07-02T04:18:51;99350.06;;;26.25;33.66
13478;BME280;12598;62.382;17.344;2023-07-02T04:19:54;99354.91;;;26.23;34.11
13478;BME280;12598;62.382;17.344;2023-07-02T04:20:57;99345.38;;;26.21;33.83
13478;BME280;12598;62.382;17.344;2023-07-02T04:22:00;99341.81;;;26.20;33.99
13478;BME280;12598;62.382;17.344;2023-07-02T04:23:01;99355.47;;;26.25;34.13
13478;BME280;12598;62.382;17.344;2023-07-02T04:24:04;99348.41;;;26.24;33.98
13478;BME280;12598;62.382;17.344;2023-07-02T04:25:06;99330.25;;;26.13;34.11
13478;BME280;12598;62.382;17.344;2023-07-02T04:26:25;99347.72;;;26.29;33.98
13478;BME280;12598;62.382;17.344;2023-07-02T04:27:48;99345.81;;;26.29;33.84
13478;BME280;12598;62.382;17.344;2023-07-02T04:28:53;99345.81;;;26.29;33.89
13478;BME280;12598;62.382;17.344;2023-07-02T04:29:56;99347.34;;;26.25;34.00
13478;BME280;12598;62.382;17.344;2023-07-02T04:30:58;99349.00;;;26.26;34.08
13478;BME280;12598;62.382;17.344;2023-07-02T04:32:00;99348.41;;;26.24;34.13
13478;BME280;12598;62.382;17.344;2023-07-02T04:33:02;99345.13;;;26.22;33.71
13478;BME280;12598;62.382;17.344;2023-07-02T04:34:04;99338.88;;;26.22;34.23
13478;BME280;12598;62.382;17.344;2023-07-02T04:35:08;99345.38;;;26.21;34.26
13478;BME280;12598;62.382;17.344;2023-07-02T04:36:10;99353.25;;;26.22;34.00
13478;BME280;12598;62.382;17.344;2023-07-02T04:37:14;99343.72;;;26.20;34.16
13478;BME280;12598;62.382;17.344;2023-07-02T04:38:16;99346.19;;;26.21;34.47
13478;BME280;12598;62.382;17.344;2023-07-02T04:39:18;99327.56;;;26.13;34.19
13478;BME280;12598;62.382;17.344;2023-07-02T04:40:20;99346.44;;;26.20;34.21
13478;BME280;12598;62.382;17.344;2023-07-02T04:41:22;99335.81;;;26.18;34.47
13478;BME280;12598;62.382;17.344;2023-07-02T04:42:24;99339.34;;;26.19;34.39
13478;BME280;12598;62.382;17.344;2023-07-02T04:43:29;99333.09;;;26.18;33.98
13478;BME280;12598;62.382;17.344;2023-07-02T04:44:31;99335.81;;;26.18;34.08
13478;BME280;12598;62.382;17.344;2023-07-02T04:45:33;99329.00;;;26.16;34.29
13478;BME280;12598;62.382;17.344;2023-07-02T04:46:38;99341.00;;;26.20;34.48
13478;BME280;12598;62.382;17.344;2023-07-02T04:47:41;99339.56;;;26.17;34.62
13478;BME280;12598;62.382;17.344;2023-07-02T04:48:43;99329.56;;;26.18;34.25
13478;BME280;12598;62.382;17.344;2023-07-02T04:49:45;99338.50;;;26.18;34.34
13478;BME280;12598;62.382;17.344;2023-07-02T04:50:47;99336.88;;;26.17;34.45
13478;BME280;12598;62.382;17.344;2023-07-02T04:51:49;99323.19;;;26.12;34.21
13478;BME280;12598;62.382;17.344;2023-07-02T04:52:51;99326.03;;;26.17;34.54
13478;BME280;12598;62.382;17.344;2023-07-02T04:53:53;99324.38;;;26.16;34.60
13478;BME280;12598;62.382;17.344;2023-07-02T04:54:55;99328.16;;;26.15;34.50
13478;BME280;12598;62.382;17.344;2023-07-02T04:55:57;99333.56;;;26.15;34.50
13478;BME280;12598;62.382;17.344;2023-07-02T04:56:59;99326.28;;;26.16;34.50
13478;BME280;12598;62.382;17.344;2023-07-02T04:58:01;99333.56;;;26.15;34.51
13478;BME280;12598;62.382;17.344;2023-07-02T04:59:03;99328.16;;;26.15;34.89
13478;BME280;12598;62.382;17.344;2023-07-02T05:00:06;99326.50;;;26.14;34.68
13478;BME280;12598;62.382;17.344;2023-07-02T05:01:08;99326.50;;;26.14;34.41
13478;BME280;12598;62.382;17.344;2023-07-02T05:02:10;99325.44;;;26.15;34.54
13478;BME280;12598;62.382;17.344;2023-07-02T05:03:12;99321.31;;;26.13;34.43
13478;BME280;12598;62.382;17.344;2023-07-02T05:04:14;99331.06;;;26.14;34.56
13478;BME280;12598;62.382;17.344;2023-07-02T05:05:17;99322.13;;;26.13;34.81
13478;BME280;12598;62.382;17.344;2023-07-02T05:06:19;99322.94;;;26.14;34.67
13478;BME280;12598;62.382;17.344;2023-07-02T05:07:21;99318.25;;;26.09;34.49
13478;BME280;12598;62.382;17.344;2023-07-02T05:08:22;99321.06;;;26.14;34.59
13478;BME280;12598;62.382;17.344;2023-07-02T05:09:24;99316.72;;;26.13;34.83
13478;BME280;12598;62.382;17.344;2023-07-02T05:10:26;99319.44;;;26.13;34.60
13478;BME280;12598;62.382;17.344;2023-07-02T05:11:28;99315.66;;;26.14;35.18
13478;BME280;12598;62.382;17.344;2023-07-02T05:12:30;99319.44;;;26.13;34.58
13478;BME280;12598;62.382;17.344;2023-07-02T05:13:32;99302.22;;;26.08;34.64
13478;BME280;12598;62.382;17.344;2023-07-02T05:14:34;99313.16;;;26.13;34.81
13478;BME280;12598;62.382;17.344;2023-07-02T05:15:35;99312.38;;;26.12;35.09
13478;BME280;12598;62.382;17.344;2023-07-02T05:16:37;99316.72;;;26.13;35.00
13478;BME280;12598;62.382;17.344;2023-07-02T05:17:39;99319.44;;;26.13;34.85
13478;BME280;12598;62.382;17.344;2023-07-02T05:18:41;99312.38;;;26.12;34.82
13478;BME280;12598;62.382;17.344;2023-07-02T05:19:43;99319.44;;;26.13;34.88
13478;BME280;12598;62.382;17.344;2023-07-02T05:20:45;99317.78;;;26.12;34.79
13478;BME280;12598;62.382;17.344;2023-07-02T05:21:48;99307.41;;;26.09;34.83
13478;BME280;12598;62.382;17.344;2023-07-02T05:22:50;99309.66;;;26.12;35.01
13478;BME280;12598;62.382;17.344;2023-07-02T05:23:52;99312.38;;;26.12;34.71
13478;BME280;12598;62.382;17.344;2023-07-02T05:24:54;99318.59;;;26.13;35.23
13478;BME280;12598;62.382;17.344;2023-07-02T05:25:55;99315.88;;;26.13;34.86
13478;BME280;12598;62.382;17.344;2023-07-02T05:26:57;99318.59;;;26.13;35.12